createdAt,value
2022-12-09T00:01:37.576Z,14.07
2022-12-09T00:04:04.075Z,13.70
2022-12-09T00:06:30.988Z,12.75
2022-12-09T00:08:58.042Z,13.10
2022-12-09T00:11:24.775Z,13.98
2022-12-09T00:13:56.266Z,13.77
2022-12-09T00:16:23.451Z,11.73
2022-12-09T00:18:50.136Z,12.25
2022-12-09T00:21:25.750Z,11.27
2022-12-09T00:23:54.133Z,11.77
2022-12-09T00:26:22.351Z,12.85
2022-12-09T00:28:49.513Z,13.60
2022-12-09T00:31:18.826Z,11.98
2022-12-09T00:33:45.984Z,12.52
2022-12-09T00:36:16.532Z,12.68
2022-12-09T00:38:43.947Z,12.90
2022-12-09T00:41:11.659Z,11.88
2022-12-09T00:43:39.003Z,12.63
2022-12-09T00:46:05.702Z,13.27
2022-12-09T00:48:34.291Z,11.70
2022-12-09T00:51:01.683Z,12.55
2022-12-09T00:53:28.181Z,12.02
2022-12-09T00:55:54.562Z,13.38
2022-12-09T00:58:21.062Z,12.27
2022-12-09T01:00:47.455Z,12.48
2022-12-09T01:03:15.141Z,12.60
2022-12-09T01:05:42.878Z,11.18
2022-12-09T01:08:10.567Z,13.43
2022-12-09T01:10:37.884Z,13.23
2022-12-09T01:13:04.469Z,11.82
2022-12-09T01:15:31.001Z,12.30
2022-12-09T01:17:57.844Z,11.77
2022-12-09T01:20:24.278Z,12.00
2022-12-09T01:22:50.630Z,12.52
2022-12-09T01:25:17.064Z,13.15
2022-12-09T01:27:43.645Z,12.45
2022-12-09T01:30:12.972Z,12.23
2022-12-09T01:32:40.175Z,12.90
2022-12-09T01:35:06.908Z,11.82
2022-12-09T01:37:33.820Z,12.02
2022-12-09T01:40:00.269Z,11.55
2022-12-09T01:42:27.344Z,11.60
2022-12-09T01:45:22.219Z,11.10
2022-12-09T01:47:52.079Z,11.05
2022-12-09T01:50:18.879Z,12.20
2022-12-09T01:52:46.699Z,11.90
2022-12-09T01:55:13.506Z,12.23
2022-12-09T01:57:40.673Z,12.25
2022-12-09T02:00:08.152Z,12.15
2022-12-09T02:02:37.151Z,11.88
2022-12-09T02:05:05.209Z,11.68
2022-12-09T02:07:32.192Z,12.15
2022-12-09T02:09:59.274Z,11.63
2022-12-09T02:13:13.401Z,13.63
2022-12-09T02:15:52.270Z,12.70
2022-12-09T02:18:39.158Z,11.60
2022-12-09T02:21:11.819Z,11.52
2022-12-09T02:23:41.632Z,11.88
2022-12-09T02:26:18.091Z,12.43
2022-12-09T02:28:57.617Z,12.85
2022-12-09T02:31:33.071Z,11.77
2022-12-09T02:34:07.281Z,13.18
2022-12-09T02:36:41.045Z,12.20
2022-12-09T02:39:08.611Z,13.23
2022-12-09T02:41:35.670Z,13.23
2022-12-09T02:44:09.610Z,12.80
2022-12-09T02:49:03.533Z,13.05
2022-12-09T02:51:32.197Z,12.48
2022-12-09T02:54:04.604Z,12.13
2022-12-09T02:56:31.690Z,13.25
2022-12-09T02:58:58.142Z,11.63
2022-12-09T03:01:32.588Z,12.25
2022-12-09T03:03:59.418Z,12.10
2022-12-09T03:06:30.592Z,12.65
2022-12-09T03:08:59.069Z,12.95
2022-12-09T03:11:26.638Z,12.30
2022-12-09T03:14:10.481Z,12.93
2022-12-09T03:16:41.214Z,12.85
2022-12-09T03:19:17.477Z,12.23
2022-12-09T03:21:46.252Z,13.60
2022-12-09T03:24:14.849Z,13.25
2022-12-09T03:26:42.459Z,13.98
2022-12-09T03:29:14.321Z,13.65
2022-12-09T03:31:41.268Z,13.27
2022-12-09T03:34:09.845Z,14.20
2022-12-09T03:36:39.181Z,14.05
2022-12-09T03:39:09.795Z,13.98
2022-12-09T03:41:38.550Z,13.85
2022-12-09T03:44:11.935Z,13.63
2022-12-09T03:46:38.663Z,13.05
2022-12-09T03:49:05.731Z,13.10
2022-12-09T03:51:38.183Z,14.27
2022-12-09T03:54:14.510Z,13.75
2022-12-09T03:56:45.656Z,13.57
2022-12-09T03:59:15.391Z,13.32
2022-12-09T04:01:43.714Z,13.65
2022-12-09T04:04:11.037Z,13.75
2022-12-09T04:06:37.874Z,13.25
2022-12-09T04:09:05.092Z,12.43
2022-12-09T04:11:32.875Z,13.15
2022-12-09T04:13:59.625Z,14.02
2022-12-09T04:16:26.255Z,12.80
2022-12-09T04:18:52.996Z,12.82
2022-12-09T04:21:19.320Z,13.68
2022-12-09T04:23:45.804Z,13.55
2022-12-09T04:26:19.389Z,14.00
2022-12-09T04:28:46.031Z,13.02
2022-12-09T04:31:14.626Z,13.40
2022-12-09T04:33:41.760Z,13.07
2022-12-09T04:36:11.689Z,13.23
2022-12-09T04:38:38.526Z,13.00
2022-12-09T04:41:05.038Z,12.70
2022-12-09T04:43:31.689Z,13.18
2022-12-09T04:46:17.991Z,13.57
2022-12-09T04:48:45.152Z,12.25
2022-12-09T04:51:13.053Z,13.60
2022-12-09T04:53:40.065Z,12.45
2022-12-09T04:56:11.090Z,12.35
2022-12-09T04:58:37.641Z,12.77
2022-12-09T05:01:11.450Z,12.43
2022-12-09T05:06:11.942Z,11.32
2022-12-09T05:08:39.900Z,13.85
2022-12-09T05:11:07.123Z,14.32
2022-12-09T05:13:33.847Z,15.77
2022-12-09T05:16:01.991Z,15.45
2022-12-09T05:18:29.396Z,16.98
2022-12-09T05:20:56.679Z,17.40
2022-12-09T05:23:23.276Z,17.58
2022-12-09T05:25:50.187Z,17.83
2022-12-09T05:28:17.236Z,17.73
2022-12-09T05:30:43.812Z,17.38
2022-12-09T05:33:10.821Z,18.85
2022-12-09T05:35:47.645Z,17.92
2022-12-09T05:38:18.558Z,19.55
2022-12-09T05:40:44.983Z,19.30
2022-12-09T05:43:12.094Z,19.27
2022-12-09T05:45:38.555Z,20.48
2022-12-09T05:48:05.310Z,20.30
2022-12-09T05:50:31.800Z,19.65
2022-12-09T05:52:58.227Z,20.25
2022-12-09T05:55:24.837Z,21.40
2022-12-09T05:57:51.672Z,20.25
2022-12-09T06:00:18.724Z,21.45
2022-12-09T06:02:45.384Z,22.83
2022-12-09T06:05:12.241Z,21.48
2022-12-09T06:07:39.340Z,21.08
2022-12-09T06:10:11.034Z,22.17
2022-12-09T06:12:38.515Z,22.00
2022-12-09T06:15:09.131Z,22.23
2022-12-09T06:17:37.196Z,20.73
2022-12-09T06:20:04.184Z,22.00
2022-12-09T06:22:31.022Z,23.02
2022-12-09T06:24:57.530Z,24.88
2022-12-09T06:27:24.131Z,23.05
2022-12-09T06:29:50.701Z,22.80
2022-12-09T06:32:18.033Z,15.82
2022-12-09T06:34:44.855Z,28.20
2022-12-09T06:37:11.553Z,37.28
2022-12-09T06:39:38.066Z,34.83
2022-12-09T06:42:04.612Z,27.38
2022-12-09T06:44:31.462Z,23.23
2022-12-09T06:46:58.293Z,23.55
2022-12-09T06:49:25.011Z,22.27
2022-12-09T06:51:52.057Z,21.30
2022-12-09T06:54:18.714Z,17.35
2022-12-09T06:56:45.380Z,22.15
2022-12-09T06:59:11.996Z,29.00
2022-12-09T07:01:38.973Z,27.73
2022-12-09T07:04:06.551Z,25.30
2022-12-09T07:06:41.041Z,24.27
2022-12-09T07:09:10.731Z,25.48
2022-12-09T07:11:37.903Z,25.13
2022-12-09T07:14:05.321Z,24.63
2022-12-09T07:16:32.147Z,25.35
2022-12-09T07:18:59.370Z,24.15
2022-12-09T07:21:26.447Z,22.55
2022-12-09T07:23:53.296Z,22.65
2022-12-09T07:26:22.964Z,23.08
2022-12-09T07:28:50.559Z,23.45
2022-12-09T07:31:20.255Z,23.45
2022-12-09T07:33:47.028Z,23.40
2022-12-09T07:36:19.178Z,22.90
2022-12-09T07:38:47.712Z,23.52
2022-12-09T07:41:18.348Z,23.05
2022-12-09T07:43:46.160Z,23.95
2022-12-09T07:46:14.377Z,27.50
2022-12-09T07:48:41.676Z,29.85
2022-12-09T07:51:08.598Z,31.70
2022-12-09T07:53:35.949Z,32.03
2022-12-09T07:56:04.156Z,31.98
2022-12-09T07:58:30.624Z,30.70
2022-12-09T08:00:57.824Z,28.83
2022-12-09T08:03:24.720Z,26.17
2022-12-09T08:05:52.715Z,26.13
2022-12-09T08:08:20.027Z,24.42
2022-12-09T08:10:46.832Z,24.33
2022-12-09T08:13:13.483Z,25.35
2022-12-09T08:15:40.067Z,24.45
2022-12-09T08:18:07.034Z,26.70
2022-12-09T08:20:33.634Z,26.17
2022-12-09T08:23:00.724Z,25.90
2022-12-09T08:25:27.338Z,24.77
2022-12-09T08:27:53.772Z,25.20
2022-12-09T08:30:20.445Z,26.85
2022-12-09T08:32:47.852Z,24.67
2022-12-09T08:35:15.290Z,25.25
2022-12-09T08:37:42.461Z,25.40
2022-12-09T08:40:10.490Z,23.33
2022-12-09T08:42:37.959Z,23.85
2022-12-09T08:45:05.486Z,24.73
2022-12-09T08:47:33.826Z,23.35
2022-12-09T08:50:00.914Z,23.27
2022-12-09T08:52:27.595Z,23.30
2022-12-09T08:54:54.270Z,22.15
2022-12-09T08:57:24.287Z,23.13
2022-12-09T08:59:51.147Z,21.20
2022-12-09T09:02:18.130Z,22.52
2022-12-09T09:04:44.799Z,24.90
2022-12-09T09:07:12.515Z,27.00
2022-12-09T09:09:40.437Z,24.35
2022-12-09T09:12:07.543Z,24.35
2022-12-09T09:14:34.208Z,21.88
2022-12-09T09:17:01.065Z,22.23
2022-12-09T09:19:27.757Z,22.70
2022-12-09T09:21:55.292Z,22.73
2022-12-09T09:24:24.489Z,21.70
2022-12-09T09:26:51.836Z,21.20
2022-12-09T09:29:21.350Z,20.75
2022-12-09T09:31:54.487Z,20.58
2022-12-09T09:34:22.269Z,19.95
2022-12-09T09:36:49.175Z,20.45
2022-12-09T09:39:16.021Z,18.48
2022-12-09T09:41:54.686Z,18.35
2022-12-09T09:44:24.112Z,18.75
2022-12-09T09:46:52.739Z,18.83
2022-12-09T09:49:36.619Z,17.52
2022-12-09T09:52:09.402Z,17.27
2022-12-09T09:54:36.319Z,17.80
2022-12-09T09:57:14.928Z,18.95
2022-12-09T10:00:19.491Z,17.33
2022-12-09T10:02:58.246Z,16.75
2022-12-09T10:05:53.140Z,16.67
2022-12-09T10:08:34.027Z,15.75
2022-12-09T10:11:12.982Z,16.45
2022-12-09T10:13:44.142Z,17.90
2022-12-09T10:16:17.780Z,16.92
2022-12-09T10:19:04.191Z,17.42
2022-12-09T10:21:38.714Z,17.08
2022-12-09T10:24:24.092Z,19.60
2022-12-09T10:27:02.224Z,17.30
2022-12-09T10:30:04.952Z,16.98
2022-12-09T10:32:33.786Z,17.08
2022-12-09T10:35:01.672Z,17.63
2022-12-09T10:37:36.121Z,16.05
2022-12-09T10:43:04.764Z,17.23
2022-12-09T10:45:52.568Z,16.95
2022-12-09T10:48:32.457Z,17.40
2022-12-09T10:51:02.850Z,17.10
2022-12-09T10:53:30.020Z,15.65
2022-12-09T10:55:58.171Z,15.93
2022-12-09T10:58:26.868Z,16.77
2022-12-09T11:01:04.416Z,16.70
2022-12-09T11:03:48.929Z,15.95
2022-12-09T11:06:24.668Z,15.90
2022-12-09T11:08:54.721Z,15.27
2022-12-09T11:11:39.766Z,15.25
2022-12-09T11:14:22.507Z,15.57
2022-12-09T11:16:52.037Z,15.73
2022-12-09T11:19:28.678Z,15.73
2022-12-09T11:22:13.630Z,15.73
2022-12-09T11:24:40.839Z,16.40
2022-12-09T11:27:27.342Z,13.55
2022-12-09T11:30:14.110Z,15.95
2022-12-09T11:32:57.782Z,16.70
2022-12-09T11:35:37.748Z,16.70
2022-12-09T11:38:17.936Z,16.50
2022-12-09T11:41:01.044Z,15.25
2022-12-09T11:43:45.431Z,14.35
2022-12-09T11:46:20.367Z,15.18
2022-12-09T11:48:54.936Z,13.68
2022-12-09T11:51:29.042Z,13.65
2022-12-09T11:54:13.089Z,12.10
2022-12-09T11:56:40.934Z,12.93
2022-12-09T11:59:16.544Z,8.93
2022-12-09T12:02:07.562Z,10.50
2022-12-09T12:04:40.133Z,10.25
2022-12-09T12:07:19.095Z,9.85
2022-12-09T12:09:53.967Z,9.25
2022-12-09T12:12:39.919Z,9.98
2022-12-09T12:15:14.441Z,10.30
2022-12-09T12:17:43.445Z,10.65
2022-12-09T12:20:12.567Z,10.70
2022-12-09T12:22:55.042Z,10.52
2022-12-09T12:25:33.888Z,11.15
2022-12-09T12:28:21.477Z,11.60
2022-12-09T12:31:21.009Z,10.88
2022-12-09T12:34:24.631Z,10.15
2022-12-09T12:37:19.804Z,11.27
2022-12-09T12:42:34.405Z,11.43
2022-12-09T12:45:43.165Z,10.60
2022-12-09T12:48:20.508Z,10.15
2022-12-09T12:51:05.441Z,10.23
2022-12-09T12:54:03.281Z,9.10
2022-12-09T12:56:49.780Z,8.73
2022-12-09T12:59:33.441Z,8.48
2022-12-09T13:02:16.370Z,8.00
2022-12-09T13:04:49.740Z,8.82
2022-12-09T13:07:36.900Z,9.65
2022-12-09T13:10:13.768Z,9.20
2022-12-09T13:12:53.906Z,9.32
2022-12-09T13:15:39.425Z,9.98
2022-12-09T13:18:13.117Z,10.52
2022-12-09T13:20:45.412Z,11.00
2022-12-09T13:23:30.570Z,10.98
2022-12-09T13:26:10.515Z,11.75
2022-12-09T13:29:02.515Z,12.60
2022-12-09T13:31:31.104Z,10.65
2022-12-09T13:34:34.907Z,10.13
2022-12-09T13:37:01.256Z,11.75
2022-12-09T13:39:39.715Z,11.15
2022-12-09T13:42:46.638Z,11.27
2022-12-09T13:45:16.443Z,12.88
2022-12-09T13:47:43.243Z,11.07
2022-12-09T13:50:31.117Z,10.13
2022-12-09T13:53:03.489Z,10.18
2022-12-09T13:55:36.765Z,11.82
2022-12-09T13:58:17.993Z,11.80
2022-12-09T14:01:02.836Z,10.90
2022-12-09T14:03:34.257Z,10.85
2022-12-09T14:06:02.209Z,10.77
2022-12-09T14:08:45.767Z,10.80
2022-12-09T14:11:41.472Z,10.88
2022-12-09T14:14:22.845Z,10.80
2022-12-09T14:16:57.049Z,10.13
2022-12-09T14:19:26.218Z,9.65
2022-12-09T14:22:22.067Z,9.65
2022-12-09T14:24:56.231Z,9.70
2022-12-09T14:27:31.309Z,8.75
2022-12-09T14:30:24.232Z,9.70
2022-12-09T14:32:50.490Z,9.20
2022-12-09T14:35:32.712Z,9.88
2022-12-09T14:38:15.254Z,9.23
2022-12-09T14:40:58.186Z,10.02
2022-12-09T14:43:38.733Z,9.80
2022-12-09T14:46:18.073Z,9.32
2022-12-09T14:48:49.531Z,10.20
2022-12-09T14:51:19.602Z,10.45
2022-12-09T14:54:08.254Z,10.60
2022-12-09T14:56:35.179Z,9.55
2022-12-09T14:59:18.175Z,9.38
2022-12-09T15:02:17.066Z,9.68
2022-12-09T15:04:45.627Z,9.18
2022-12-09T15:07:12.016Z,9.30
2022-12-09T15:09:52.584Z,9.85
2022-12-09T15:12:21.733Z,9.73
2022-12-09T15:14:54.702Z,9.15
2022-12-09T15:17:27.226Z,9.45
2022-12-09T15:20:01.453Z,9.65
2022-12-09T15:22:31.415Z,9.75
2022-12-09T15:24:58.373Z,8.25
2022-12-09T15:27:27.111Z,9.98
2022-12-09T15:29:54.287Z,8.98
2022-12-09T15:32:26.604Z,12.25
2022-12-09T15:34:54.267Z,12.05
2022-12-09T15:37:26.696Z,9.80
2022-12-09T15:40:08.341Z,8.93
2022-12-09T15:42:37.551Z,9.63
2022-12-09T15:45:09.861Z,9.43
2022-12-09T15:47:39.101Z,8.30
2022-12-09T15:50:23.800Z,9.65
2022-12-09T15:52:52.410Z,9.45
2022-12-09T15:55:21.777Z,9.10
2022-12-09T15:57:49.751Z,9.88
2022-12-09T16:00:16.270Z,9.15
2022-12-09T16:02:44.840Z,9.55
2022-12-09T16:05:11.485Z,10.63
2022-12-09T16:07:38.542Z,8.43
2022-12-09T16:10:12.841Z,9.65
2022-12-09T16:12:40.334Z,9.88
2022-12-09T16:15:08.751Z,8.68
2022-12-09T16:18:08.815Z,9.38
2022-12-09T16:20:41.227Z,8.98
2022-12-09T16:23:21.109Z,9.45
2022-12-09T16:25:49.064Z,9.30
2022-12-09T16:28:23.308Z,8.88
2022-12-09T16:30:50.892Z,8.77
2022-12-09T16:33:21.650Z,8.93
2022-12-09T16:36:03.434Z,9.38
2022-12-09T16:38:31.008Z,9.40
2022-12-09T16:40:59.937Z,8.93
2022-12-09T16:43:27.814Z,9.48
2022-12-09T16:45:56.392Z,9.05
2022-12-09T16:48:24.580Z,9.52
2022-12-09T16:50:53.933Z,8.77
2022-12-09T16:53:23.563Z,8.70
2022-12-09T16:55:50.905Z,8.85
2022-12-09T16:58:17.306Z,10.18
2022-12-09T17:00:43.788Z,9.45
2022-12-09T17:03:17.573Z,9.05
2022-12-09T17:05:47.744Z,9.48
2022-12-09T17:08:15.887Z,9.60
2022-12-09T17:10:42.386Z,10.57
2022-12-09T17:13:10.729Z,9.85
2022-12-09T17:15:37.130Z,10.73
2022-12-09T17:18:03.535Z,9.90
2022-12-09T17:20:29.927Z,9.25
2022-12-09T17:22:56.257Z,10.10
2022-12-09T17:25:22.597Z,9.15
2022-12-09T17:27:48.960Z,10.52
2022-12-09T17:30:15.364Z,9.38
2022-12-09T17:32:42.321Z,8.98
2022-12-09T17:35:12.645Z,9.70
2022-12-09T17:37:39.402Z,9.15
2022-12-09T17:40:05.999Z,9.63
2022-12-09T17:42:32.938Z,9.05
2022-12-09T17:44:59.305Z,9.75
2022-12-09T17:47:26.953Z,9.10
2022-12-09T17:49:53.286Z,8.80
2022-12-09T17:52:19.616Z,8.77
2022-12-09T17:54:47.275Z,8.23
2022-12-09T17:57:13.719Z,8.18
2022-12-09T17:59:40.089Z,8.27
2022-12-09T18:02:07.180Z,7.85
2022-12-09T18:04:33.674Z,8.02
2022-12-09T18:07:00.169Z,8.40
2022-12-09T18:09:26.553Z,7.78
2022-12-09T18:11:52.995Z,7.75
2022-12-09T18:14:20.881Z,7.32
2022-12-09T18:16:48.916Z,7.07
2022-12-09T18:19:17.831Z,7.32
2022-12-09T18:21:44.804Z,8.10
2022-12-09T18:24:12.840Z,8.40
2022-12-09T18:26:41.926Z,7.90
2022-12-09T18:29:08.747Z,7.30
2022-12-09T18:31:35.221Z,7.38
2022-12-09T18:34:01.619Z,7.47
2022-12-09T18:36:28.721Z,7.07
2022-12-09T18:38:57.762Z,7.28
2022-12-09T18:41:26.577Z,7.20
2022-12-09T18:43:53.872Z,6.95
2022-12-09T18:46:25.695Z,8.02
2022-12-09T18:48:57.340Z,7.80
2022-12-09T18:51:23.678Z,7.30
2022-12-09T18:53:50.055Z,8.98
2022-12-09T18:56:17.036Z,8.07
2022-12-09T18:59:05.312Z,8.43
2022-12-09T19:01:31.383Z,7.28
2022-12-09T19:04:02.908Z,8.50
2022-12-09T19:06:31.618Z,8.63
2022-12-09T19:09:00.440Z,7.93
2022-12-09T19:11:29.678Z,8.02
2022-12-09T19:13:57.151Z,7.88
2022-12-09T19:16:24.752Z,8.25
2022-12-09T19:18:53.453Z,8.93
2022-12-09T19:21:21.058Z,7.82
2022-12-09T19:23:47.827Z,8.30
2022-12-09T19:26:21.096Z,8.68
2022-12-09T19:28:58.920Z,7.88
2022-12-09T19:31:28.230Z,8.45
2022-12-09T19:33:56.015Z,8.20
2022-12-09T19:36:23.532Z,9.00
2022-12-09T19:38:50.767Z,8.40
2022-12-09T19:41:18.067Z,9.98
2022-12-09T19:43:47.602Z,10.25
2022-12-09T19:46:14.978Z,10.20
2022-12-09T19:48:44.193Z,10.68
2022-12-09T19:51:12.926Z,10.38
2022-12-09T19:53:39.509Z,10.75
2022-12-09T19:56:08.475Z,10.65
2022-12-09T19:58:36.389Z,10.63
2022-12-09T20:01:17.689Z,11.48
2022-12-09T20:03:46.860Z,11.93
2022-12-09T20:06:16.126Z,12.18
2022-12-09T20:08:43.123Z,12.32
2022-12-09T20:11:12.564Z,12.02
2022-12-09T20:13:39.155Z,11.65
2022-12-09T20:16:07.086Z,11.15
2022-12-09T20:18:34.101Z,11.18
2022-12-09T20:21:02.063Z,11.85
2022-12-09T20:23:28.487Z,11.48
2022-12-09T20:25:55.115Z,12.55
2022-12-09T20:28:21.644Z,12.45
2022-12-09T20:30:48.178Z,11.73
2022-12-09T20:33:14.762Z,12.88
2022-12-09T20:35:41.274Z,12.15
2022-12-09T20:38:08.304Z,12.95
2022-12-09T20:40:40.462Z,12.95
2022-12-09T20:43:07.522Z,12.15
2022-12-09T20:45:34.280Z,12.80
2022-12-09T20:48:00.723Z,11.95
2022-12-09T20:50:27.165Z,12.63
2022-12-09T20:52:53.503Z,12.68
2022-12-09T20:55:20.471Z,12.02
2022-12-09T20:57:46.830Z,11.27
2022-12-09T21:00:13.458Z,11.50
2022-12-09T21:02:40.071Z,11.23
2022-12-09T21:05:09.429Z,10.48
2022-12-09T21:07:35.828Z,11.15
2022-12-09T21:10:02.298Z,11.15
2022-12-09T21:12:28.641Z,11.68
2022-12-09T21:14:55.430Z,10.20
2022-12-09T21:17:21.812Z,10.70
2022-12-09T21:19:48.223Z,10.48
2022-12-09T21:22:14.903Z,10.98
2022-12-09T21:24:41.244Z,10.73
2022-12-09T21:27:07.748Z,12.05
2022-12-09T21:29:34.108Z,11.68
2022-12-09T21:32:01.699Z,11.65
2022-12-09T21:34:28.254Z,12.43
2022-12-09T21:36:54.759Z,13.88
2022-12-09T21:39:21.410Z,13.52
2022-12-09T21:41:48.196Z,13.32
2022-12-09T21:44:16.982Z,13.50
2022-12-09T21:46:43.596Z,14.15
2022-12-09T21:49:10.745Z,14.50
2022-12-09T21:51:37.584Z,14.88
2022-12-09T21:54:04.147Z,14.40
2022-12-09T21:56:32.909Z,14.38
2022-12-09T21:58:59.911Z,13.25
2022-12-09T22:01:33.009Z,12.02
2022-12-09T22:04:01.063Z,12.05
2022-12-09T22:06:28.518Z,13.13
2022-12-09T22:08:55.069Z,12.68
2022-12-09T22:11:27.680Z,14.55
2022-12-09T22:13:56.862Z,11.93
2022-12-09T22:16:25.779Z,13.20
2022-12-09T22:18:53.685Z,12.85
2022-12-09T22:21:25.512Z,13.25
2022-12-09T22:23:56.835Z,12.55
2022-12-09T22:26:23.880Z,11.18
2022-12-09T22:28:54.206Z,13.25
2022-12-09T22:31:23.902Z,13.88
2022-12-09T22:33:51.576Z,13.60
2022-12-09T22:36:18.179Z,13.90
2022-12-09T22:38:44.557Z,13.82
2022-12-09T22:41:16.966Z,13.18
2022-12-09T22:43:43.844Z,13.55
2022-12-09T22:46:12.931Z,13.65
2022-12-09T22:48:40.482Z,14.23
2022-12-09T22:51:16.080Z,12.65
2022-12-09T22:53:42.975Z,13.00
2022-12-09T22:56:10.777Z,12.38
2022-12-09T22:58:37.598Z,14.60
2022-12-09T23:01:11.467Z,14.73
2022-12-09T23:06:04.304Z,13.55
2022-12-09T23:08:30.765Z,14.20
2022-12-09T23:11:01.958Z,14.10
2022-12-09T23:13:28.589Z,15.05
2022-12-09T23:15:54.982Z,15.32
2022-12-09T23:18:21.565Z,14.23
2022-12-09T23:20:47.871Z,13.82
2022-12-09T23:23:14.275Z,13.85
2022-12-09T23:25:41.646Z,13.52
2022-12-09T23:28:08.201Z,14.30
2022-12-09T23:30:34.581Z,13.90
2022-12-09T23:33:00.926Z,12.70
2022-12-09T23:35:27.252Z,13.95
2022-12-09T23:37:53.622Z,14.55
2022-12-09T23:40:19.926Z,15.02
2022-12-09T23:42:46.356Z,15.15
2022-12-09T23:45:12.716Z,15.60
2022-12-09T23:47:39.230Z,17.25
2022-12-09T23:50:06.349Z,16.38
2022-12-09T23:52:36.580Z,16.73
2022-12-09T23:55:04.676Z,16.65
2022-12-09T23:57:31.136Z,16.25
2022-12-09T23:59:59.554Z,15.68
